Time;durP1;ratioP1;P1;durP2;ratioP2;P2;SDS_P1;SDS_P2;PMS_P1;PMS_P2;Temp;Humidity;BMP_temperature;BMP_pressure;BME280_temperature;BME280_humidity;BME280_pressure;Samples;Min_cycle;Max_cycle;Signal;HPM_P1;HPM_P2
2022/03/19 00:02:21;;;;;;;26.73;16.92;;;51.30;2227.20;;;;;;4972990;28;20133;-56
2022/03/19 00:04:47;;;;;;;30.40;17.83;;;51.30;2227.20;;;;;;4973295;28;20027;-57
2022/03/19 00:07:14;;;;;;;90.07;49.55;;;51.40;2227.20;;;;;;4973443;28;20023;-56
2022/03/19 00:09:40;;;;;;;56.63;32.72;;;51.40;2227.20;;;;;;4973242;28;20023;-57
2022/03/19 00:12:08;;;;;;;104.57;56.03;;;51.30;2227.20;;;;;;4973070;28;20018;-57
2022/03/19 00:14:33;;;;;;;81.68;45.67;;;51.20;2227.20;;;;;;4973476;28;20461;-56
2022/03/19 00:16:59;;;;;;;61.05;34.78;;;51.40;2227.20;;;;;;4973183;28;20051;-56
2022/03/19 00:19:27;;;;;;;62.15;34.38;;;51.30;2227.20;;;;;;4973233;28;20026;-56
2022/03/19 00:21:53;;;;;;;26.52;17.45;;;51.50;2227.20;;;;;;4972948;28;20053;-56
2022/03/19 00:24:18;;;;;;;25.75;15.05;;;51.40;2227.20;;;;;;4972910;28;20034;-57
2022/03/19 00:26:44;;;;;;;41.78;21.05;;;51.30;2227.20;;;;;;4973006;28;20466;-57
2022/03/19 00:29:10;;;;;;;45.88;27.40;;;51.40;2227.20;;;;;;4973049;28;20030;-56
2022/03/19 00:31:36;;;;;;;49.35;29.95;;;51.30;2227.20;;;;;;4972633;28;20134;-56
2022/03/19 00:34:01;;;;;;;57.08;31.92;;;51.50;2227.20;;;;;;4971973;28;20038;-55
2022/03/19 00:36:27;;;;;;;49.55;29.25;;;51.50;2227.20;;;;;;4972667;28;20035;-55
2022/03/19 00:38:54;;;;;;;32.72;17.20;;;51.30;2227.20;;;;;;4972893;28;20034;-57
2022/03/19 00:41:21;;;;;;;23.33;14.45;;;51.20;2227.20;;;;;;4972557;28;20466;-57
2022/03/19 00:43:47;;;;;;;24.40;14.05;;;51.20;2227.20;;;;;;4972515;28;20037;-56
2022/03/19 00:46:15;;;;;;;26.98;16.23;;;26.50;2201.60;;;;;;4972784;28;20106;-56
2022/03/19 00:48:41;;;;;;;26.75;14.20;;;26.50;2201.60;;;;;;4972813;28;20031;-56
2022/03/19 00:51:07;;;;;;;22.88;14.93;;;26.50;2201.60;;;;;;4972332;28;20027;-57
2022/03/19 00:53:33;;;;;;;32.35;18.13;;;26.50;2201.60;;;;;;4972575;28;20035;-56
2022/03/19 00:55:59;;;;;;;42.40;21.98;;;26.50;2201.60;;;;;;4972314;28;20113;-57
2022/03/19 00:58:24;;;;;;;33.60;20.05;;;51.20;2227.20;;;;;;4972556;28;20114;-57
2022/03/19 01:00:50;;;;;;;57.35;35.83;;;51.20;2227.20;;;;;;4972443;28;20038;-56
2022/03/19 01:03:16;;;;;;;39.10;21.23;;;26.50;2201.60;;;;;;4971997;28;20055;-57
2022/03/19 01:05:42;;;;;;;28.45;18.52;;;51.20;2227.20;;;;;;4972523;28;20027;-56
2022/03/19 01:08:09;;;;;;;36.17;19.00;;;51.20;2227.20;;;;;;4972150;28;20031;-57
2022/03/19 01:10:35;;;;;;;34.25;21.20;;;26.50;2201.60;;;;;;4972332;28;20113;-57
2022/03/19 01:13:04;;;;;;;35.20;22.05;;;26.50;2201.60;;;;;;4972287;28;20500;-56
2022/03/19 01:15:30;;;;;;;32.08;16.48;;;26.40;2201.60;;;;;;4971943;28;20019;-56
2022/03/19 01:17:56;;;;;;;30.92;16.13;;;26.40;2201.60;;;;;;4972068;28;20038;-57
2022/03/19 01:20:22;;;;;;;33.88;18.33;;;26.40;2201.60;;;;;;4972132;28;20029;-56
2022/03/19 01:22:49;;;;;;;25.15;16.00;;;26.30;2201.60;;;;;;4971720;28;20047;-56
2022/03/19 01:25:16;;;;;;;24.20;16.70;;;26.30;2201.60;;;;;;4972044;28;20109;-57
2022/03/19 01:27:44;;;;;;;27.77;15.65;;;26.20;2201.60;;;;;;4972047;28;20089;-56
2022/03/19 01:30:11;;;;;;;45.40;33.13;;;26.30;2201.60;;;;;;4971938;28;20046;-56
2022/03/19 01:32:38;;;;;;;43.50;29.58;;;26.20;2201.60;;;;;;4971503;28;20035;-57
2022/03/19 01:35:04;;;;;;;26.77;14.55;;;26.30;2201.60;;;;;;4971857;28;20053;-57
2022/03/19 01:37:30;;;;;;;25.20;14.85;;;26.20;2201.60;;;;;;4971643;28;20031;-56
2022/03/19 01:39:56;;;;;;;26.42;14.38;;;26.10;2201.60;;;;;;4971506;28;20454;-57
2022/03/19 01:42:27;;;;;;;28.98;16.15;;;26.00;2201.60;;;;;;4971640;28;20070;-57
2022/03/19 01:44:55;;;;;;;24.48;15.55;;;26.10;2201.60;;;;;;4971343;28;20038;-57
2022/03/19 01:47:23;;;;;;;28.77;16.08;;;26.10;2201.60;;;;;;4971721;28;20031;-57
2022/03/19 01:49:49;;;;;;;27.42;14.60;;;26.10;2201.60;;;;;;4971451;28;20089;-57
2022/03/19 01:52:15;;;;;;;24.33;14.80;;;26.10;2201.60;;;;;;4971535;28;20065;-57
2022/03/19 01:54:44;;;;;;;29.58;17.88;;;26.10;2201.60;;;;;;4971615;28;20062;-57
2022/03/19 01:57:14;;;;;;;32.70;21.15;;;26.10;2201.60;;;;;;4971305;28;20169;-57
2022/03/19 01:59:41;;;;;;;35.60;18.52;;;25.90;2201.60;;;;;;4971525;28;20084;-56
2022/03/19 02:02:08;;;;;;;32.63;18.52;;;26.00;2201.60;;;;;;4970739;28;20540;-57
2022/03/19 02:04:35;;;;;;;30.75;17.30;;;26.00;2201.60;;;;;;4971425;28;20027;-57
2022/03/19 02:07:01;;;;;;;28.10;17.25;;;26.10;2201.60;;;;;;4971491;28;20026;-56
2022/03/19 02:09:28;;;;;;;25.70;14.88;;;26.30;2201.60;;;;;;4971321;28;20102;-57
2022/03/19 02:11:54;;;;;;;23.88;12.60;;;25.80;2201.60;;;;;;4971657;28;20029;-56
2022/03/19 02:14:20;;;;;;;18.20;12.10;;;25.80;2201.60;;;;;;4971349;28;20113;-56
2022/03/19 02:16:47;;;;;;;21.63;14.32;;;26.00;2201.60;;;;;;4971161;28;20035;-57
2022/03/19 02:19:13;;;;;;;22.38;13.60;;;25.90;2201.60;;;;;;4971470;28;20038;-56
2022/03/19 02:21:43;;;;;;;20.65;11.20;;;26.00;2201.60;;;;;;4970933;28;20046;-57
2022/03/19 02:26:55;;;;;;;17.63;11.98;;;26.00;2201.60;;;;;;4971591;28;20030;-57
2022/03/19 02:29:21;;;;;;;16.60;10.90;;;25.90;2201.60;;;;;;4971366;28;20031;-57
2022/03/19 02:31:49;;;;;;;19.70;11.55;;;26.10;2201.60;;;;;;4970892;28;20070;-57
2022/03/19 02:34:15;;;;;;;24.13;15.63;;;26.10;2201.60;;;;;;4971079;28;20057;-56
2022/03/19 02:36:41;;;;;;;14.85;9.52;;;26.10;2201.60;;;;;;4971082;28;20038;-56
2022/03/19 02:39:13;;;;;;;20.42;12.38;;;26.10;2201.60;;;;;;4971049;28;20027;-57
2022/03/19 02:41:43;;;;;;;19.08;10.70;;;26.20;2201.60;;;;;;4970794;28;20035;-56
2022/03/19 02:44:10;;;;;;;17.52;8.60;;;26.10;2201.60;;;;;;4971023;28;20030;-57
2022/03/19 02:46:41;;;;;;;16.80;8.82;;;26.20;2201.60;;;;;;4970927;28;20027;-57
2022/03/19 02:49:08;;;;;;;14.20;8.18;;;26.20;2201.60;;;;;;4970869;28;20054;-57
2022/03/19 02:51:35;;;;;;;12.85;9.02;;;26.10;2201.60;;;;;;4970840;28;20031;-57
2022/03/19 02:54:06;;;;;;;17.20;9.75;;;26.10;2201.60;;;;;;4971109;28;20102;-56
2022/03/19 02:56:34;;;;;;;14.60;8.88;;;26.10;2201.60;;;;;;4971050;28;20022;-56
2022/03/19 02:59:06;;;;;;;14.57;8.68;;;26.20;2201.60;;;;;;4974557;28;20034;-56
2022/03/19 03:01:33;;;;;;;13.82;7.38;;;26.20;2201.60;;;;;;4974443;28;20106;-57
2022/03/19 03:03:58;;;;;;;17.13;10.07;;;26.20;2201.60;;;;;;4974301;28;20481;-56
2022/03/19 03:06:24;;;;;;;19.70;12.45;;;26.20;2201.60;;;;;;4974469;28;20110;-56
2022/03/19 03:08:50;;;;;;;31.70;16.13;;;26.10;2201.60;;;;;;4974450;28;20023;-56
2022/03/19 03:11:17;;;;;;;26.95;15.15;;;26.10;2201.60;;;;;;4974440;28;20035;-57
2022/03/19 03:13:43;;;;;;;28.33;15.45;;;26.10;2201.60;;;;;;4974641;28;20027;-56
2022/03/19 03:16:08;;;;;;;17.35;11.32;;;26.00;2201.60;;;;;;4974156;28;20031;-57
2022/03/19 03:18:34;;;;;;;18.08;11.85;;;25.90;2201.60;;;;;;4974455;28;20120;-56
2022/03/19 03:21:00;;;;;;;16.80;10.45;;;26.00;2201.60;;;;;;4973975;28;20027;-57
2022/03/19 03:23:26;;;;;;;18.88;10.15;;;25.80;2201.60;;;;;;4974153;28;20481;-57
2022/03/19 03:25:52;;;;;;;12.60;8.00;;;25.90;2201.60;;;;;;4974225;28;20086;-57
2022/03/19 03:28:18;;;;;;;15.07;8.68;;;25.90;2201.60;;;;;;4973992;28;20167;-57
2022/03/19 03:30:44;;;;;;;14.63;8.75;;;25.70;2201.60;;;;;;4974035;28;20449;-57
2022/03/19 03:33:10;;;;;;;14.77;7.63;;;25.80;2201.60;;;;;;4973994;28;20041;-57
2022/03/19 03:35:38;;;;;;;12.27;7.85;;;25.70;2201.60;;;;;;4973719;28;20051;-57
2022/03/19 03:38:03;;;;;;;15.45;8.85;;;25.60;2201.60;;;;;;4973960;28;20027;-57
2022/03/19 03:40:29;;;;;;;14.55;7.82;;;25.80;2201.60;;;;;;4973924;28;20039;-57
2022/03/19 03:42:56;;;;;;;17.30;12.40;;;25.80;2201.60;;;;;;4973815;28;20039;-56
2022/03/19 03:45:22;;;;;;;20.10;11.65;;;25.70;2201.60;;;;;;4974000;28;20035;-56
2022/03/19 03:47:49;;;;;;;28.10;15.48;;;0.70;2201.60;;;;;;4973564;28;20057;-57
2022/03/19 03:50:15;;;;;;;22.95;13.85;;;0.70;2201.60;;;;;;4973715;28;20053;-56
2022/03/19 03:52:40;;;;;;;14.80;9.48;;;0.80;2201.60;;;;;;4973478;28;20454;-56
2022/03/19 03:55:07;;;;;;;14.07;9.05;;;0.90;2201.60;;;;;;4973413;28;20058;-56
2022/03/19 03:57:34;;;;;;;18.40;10.68;;;0.90;2201.60;;;;;;4973785;28;20042;-56
2022/03/19 04:00:04;;;;;;;20.85;12.40;;;0.90;2201.60;;;;;;4973338;28;20023;-56
2022/03/19 04:02:30;;;;;;;21.45;10.88;;;25.60;2201.60;;;;;;4973099;28;20085;-57
2022/03/19 04:04:56;;;;;;;13.95;9.20;;;0.90;2201.60;;;;;;4973158;28;20070;-57
2022/03/19 04:07:23;;;;;;;27.40;16.63;;;0.80;2201.60;;;;;;4973342;28;20030;-57
2022/03/19 04:09:49;;;;;;;14.90;10.38;;;0.90;2201.60;;;;;;4973122;28;20031;-57
2022/03/19 04:12:15;;;;;;;22.73;19.08;;;25.60;2201.60;;;;;;4973426;28;20027;-57
2022/03/19 04:14:41;;;;;;;18.42;13.13;;;25.60;2201.60;;;;;;4973388;28;20031;-56
2022/03/19 04:17:07;;;;;;;18.95;11.52;;;25.60;2201.60;;;;;;4973093;28;20114;-57
2022/03/19 04:19:33;;;;;;;20.00;15.55;;;25.70;2201.60;;;;;;4973134;28;20169;-57
2022/03/19 04:21:58;;;;;;;17.83;12.57;;;25.70;2201.60;;;;;;4972685;28;20035;-56
2022/03/19 04:24:25;;;;;;;20.30;12.38;;;25.60;2201.60;;;;;;4973262;28;20491;-56
2022/03/19 04:26:51;;;;;;;19.92;12.18;;;0.90;2201.60;;;;;;4973158;28;20034;-56
2022/03/19 04:29:17;;;;;;;21.67;13.30;;;25.60;2201.60;;;;;;4972886;28;20031;-57
2022/03/19 04:31:44;;;;;;;23.30;13.23;;;0.70;2201.60;;;;;;4973007;28;20038;-56
2022/03/19 04:34:09;;;;;;;17.70;12.27;;;0.80;2201.60;;;;;;4972768;28;20045;-56
2022/03/19 04:36:38;;;;;;;14.98;10.15;;;0.70;2201.60;;;;;;4972814;28;20114;-56
2022/03/19 04:39:06;;;;;;;18.33;11.10;;;0.60;2201.60;;;;;;4972880;28;20030;-56
2022/03/19 04:41:33;;;;;;;19.83;13.85;;;0.40;2201.60;;;;;;4972726;28;20027;-57
2022/03/19 04:43:59;;;;;;;18.85;12.93;;;0.60;2201.60;;;;;;4972620;28;20424;-56
2022/03/19 04:46:26;;;;;;;17.95;10.63;;;0.80;2201.60;;;;;;4972777;28;20030;-56
2022/03/19 04:48:53;;;;;;;14.93;9.85;;;0.90;2201.60;;;;;;4964807;28;20027;-56
2022/03/19 04:51:21;;;;;;;21.27;15.35;;;0.90;2201.60;;;;;;4972359;28;20035;-56
2022/03/19 04:53:50;;;;;;;23.10;12.75;;;25.60;2201.60;;;;;;4972392;28;20039;-56
2022/03/19 04:56:22;;;;;;;19.15;11.23;;;25.60;2201.60;;;;;;4972481;28;20109;-57
2022/03/19 04:58:51;;;;;;;20.50;11.77;;;25.60;2201.60;;;;;;4972222;28;20034;-57
2022/03/19 05:01:17;;;;;;;24.02;14.75;;;25.70;2201.60;;;;;;4972190;28;20268;-56
2022/03/19 05:03:43;;;;;;;24.58;14.02;;;25.80;2201.60;;;;;;4972222;28;20051;-56
2022/03/19 05:06:09;;;;;;;17.70;12.07;;;25.80;2201.60;;;;;;4972078;28;20424;-56
2022/03/19 05:08:35;;;;;;;23.35;13.85;;;25.80;2201.60;;;;;;4972211;28;20034;-56
2022/03/19 05:11:13;;;;;;;20.45;13.25;;;25.70;2201.60;;;;;;4972276;28;20034;-56
2022/03/19 05:13:44;;;;;;;18.23;12.18;;;25.70;2201.60;;;;;;4972215;28;20053;-56
2022/03/19 05:16:13;;;;;;;20.48;10.80;;;25.60;2201.60;;;;;;4972015;28;20363;-56
2022/03/19 05:18:39;;;;;;;18.60;10.82;;;0.80;2201.60;;;;;;4971962;28;20035;-56
2022/03/19 05:21:05;;;;;;;20.60;12.23;;;0.90;2201.60;;;;;;4971560;28;20039;-56
2022/03/19 05:23:31;;;;;;;17.98;10.30;;;25.80;2201.60;;;;;;4972015;28;20034;-56
2022/03/19 05:26:00;;;;;;;16.85;10.32;;;25.90;2201.60;;;;;;4971852;28;20375;-57
2022/03/19 05:28:26;;;;;;;18.98;13.27;;;26.00;2201.60;;;;;;4972113;28;20517;-56
2022/03/19 05:30:57;;;;;;;20.23;12.02;;;26.00;2201.60;;;;;;4971875;28;20031;-56
2022/03/19 05:36:07;;;;;;;21.95;11.55;;;25.70;2201.60;;;;;;4971996;28;20025;-56
2022/03/19 05:38:33;;;;;;;24.35;14.50;;;25.90;2201.60;;;;;;4971799;28;20114;-56
2022/03/19 05:40:58;;;;;;;17.88;11.65;;;26.10;2201.60;;;;;;4971683;28;20444;-56
2022/03/19 05:43:24;;;;;;;22.35;12.13;;;26.20;2201.60;;;;;;4971740;28;20037;-56
2022/03/19 05:45:50;;;;;;;20.08;11.50;;;26.10;2201.60;;;;;;4971398;28;20450;-56
2022/03/19 05:48:16;;;;;;;18.38;11.75;;;26.20;2201.60;;;;;;4971508;28;20039;-57
2022/03/19 05:50:42;;;;;;;17.13;11.25;;;51.20;2227.20;;;;;;4971989;28;20066;-56
2022/03/19 05:53:08;;;;;;;20.40;10.07;;;51.30;2227.20;;;;;;4971482;28;20105;-56
2022/03/19 05:55:33;;;;;;;25.00;10.63;;;51.30;2227.20;;;;;;4971606;28;20389;-56
2022/03/19 05:57:59;;;;;;;21.23;9.90;;;51.30;2227.20;;;;;;4971310;28;20466;-56
2022/03/19 06:00:25;;;;;;;14.85;9.10;;;51.60;2227.20;;;;;;4971442;28;20533;-56
2022/03/19 06:02:50;;;;;;;22.67;11.05;;;51.50;2227.20;;;;;;4970849;28;20046;-57
2022/03/19 06:05:16;;;;;;;20.08;11.30;;;51.40;2227.20;;;;;;4971367;28;20027;-57
2022/03/19 06:07:42;;;;;;;18.05;10.43;;;51.20;2227.20;;;;;;4971397;28;20393;-56
2022/03/19 06:10:08;;;;;;;15.90;10.07;;;51.40;2227.20;;;;;;4971320;28;20034;-57
2022/03/19 06:12:34;;;;;;;15.30;9.73;;;52.00;2227.20;;;;;;4951929;28;20466;-56
2022/03/19 06:15:00;;;;;;;17.10;9.95;;;102.80;2227.20;;;;;;4971143;28;20099;-57
2022/03/19 06:17:26;;;;;;;13.63;9.55;;;128.80;2124.80;;;;;;4971089;28;20124;-57
2022/03/19 06:19:54;;;;;;;12.80;10.10;;;179.60;1894.40;;;;;;4971543;28;20023;-57
2022/03/19 06:22:20;;;;;;;16.60;11.65;;;205.60;1766.40;;;;;;4971140;28;20034;-57
2022/03/19 06:24:46;;;;;;;22.80;17.98;;;256.00;1664.00;;;;;;4971173;28;20080;-58
2022/03/19 06:27:12;;;;;;;24.15;18.23;;;281.60;1561.60;;;;;;4971374;28;20031;-57
2022/03/19 06:29:37;;;;;;;17.02;13.57;;;307.60;1510.40;;;;;;4971017;28;20030;-57
2022/03/19 06:32:03;;;;;;;16.83;13.60;;;308.10;1433.60;;;;;;4973652;28;20026;-57
2022/03/19 06:34:31;;;;;;;19.48;13.57;;;307.70;1433.60;;;;;;4974860;28;20056;-57
2022/03/19 06:39:42;;;;;;;16.55;14.07;;;333.50;1382.40;;;;;;4975486;28;20126;-57
2022/03/19 06:42:08;;;;;;;16.80;14.30;;;358.50;1331.20;;;;;;4974815;28;20541;-57
2022/03/19 06:44:33;;;;;;;18.88;15.52;;;333.50;1331.20;;;;;;4974945;28;20023;-57
2022/03/19 06:46:59;;;;;;;18.20;15.60;;;333.30;1356.80;;;;;;4974686;28;20432;-57
2022/03/19 06:49:27;;;;;;;20.42;16.77;;;333.50;1331.20;;;;;;4975061;28;20064;-57
2022/03/19 06:51:52;;;;;;;25.85;19.50;;;333.00;1382.40;;;;;;4974788;28;20504;-58
2022/03/19 06:54:18;;;;;;;23.38;19.48;;;333.50;1382.40;;;;;;4974527;28;20062;-57
2022/03/19 06:56:44;;;;;;;22.15;18.75;;;333.10;1382.40;;;;;;4974777;28;20037;-57
2022/03/19 06:59:10;;;;;;;21.15;17.75;;;333.50;1382.40;;;;;;4974578;28;20069;-57
2022/03/19 07:01:37;;;;;;;24.90;20.40;;;333.70;1331.20;;;;;;4974200;28;20033;-57
2022/03/19 07:04:03;;;;;;;24.98;21.48;;;384.40;1254.40;;;;;;4974455;28;20062;-57
2022/03/19 07:06:30;;;;;;;26.42;21.30;;;410.00;1203.20;;;;;;4974267;28;20029;-57
2022/03/19 07:08:55;;;;;;;26.67;21.27;;;435.40;1203.20;;;;;;4974366;28;20029;-57
2022/03/19 07:11:21;;;;;;;24.58;21.52;;;461.10;1177.60;;;;;;4974118;28;20026;-57
2022/03/19 07:13:47;;;;;;;29.58;23.92;;;486.40;1100.80;;;;;;4974088;28;20122;-58
2022/03/19 07:16:15;;;;;;;47.58;42.40;;;487.10;1075.20;;;;;;4974347;28;20037;-57
2022/03/19 07:18:42;;;;;;;44.35;39.63;;;486.50;1100.80;;;;;;4974175;28;20070;-57
2022/03/19 07:21:09;;;;;;;40.50;36.17;;;461.50;1126.40;;;;;;4973988;28;20027;-57
2022/03/19 07:23:35;;;;;;;34.38;30.50;;;461.10;1152.00;;;;;;4974072;28;20211;-57
2022/03/19 07:26:01;;;;;;;33.38;29.77;;;461.70;1126.40;;;;;;4973951;28;20377;-57
2022/03/19 07:28:28;;;;;;;38.00;33.95;;;486.50;1126.40;;;;;;4973977;28;20031;-58
2022/03/19 07:30:54;;;;;;;45.38;40.80;;;486.80;1100.80;;;;;;4973977;28;20385;-57
2022/03/19 07:33:20;;;;;;;33.05;29.42;;;512.30;1049.60;;;;;;4973936;28;20493;-54
2022/03/19 07:35:46;;;;;;;30.60;27.25;;;512.20;1049.60;;;;;;4973942;28;20046;-55
2022/03/19 07:38:12;;;;;;;35.90;31.98;;;512.00;1024.00;;;;;;4973947;28;20035;-54
2022/03/19 07:43:31;;;;;;;169.98;120.70;;;538.00;972.80;;;;;;4957410;28;20057;-54
2022/03/19 07:45:57;;;;;;;85.63;65.75;;;589.10;921.60;;;;;;4973549;28;20055;-53
2022/03/19 07:48:23;;;;;;;215.90;173.40;;;614.40;870.40;;;;;;4973534;28;20065;-52
2022/03/19 07:50:48;;;;;;;263.63;233.07;;;615.30;844.80;;;;;;4973466;28;20029;-53
2022/03/19 07:53:14;;;;;;;60.15;53.63;;;640.40;819.20;;;;;;4973675;28;20027;-53
2022/03/19 07:55:41;;;;;;;46.35;41.67;;;640.90;793.60;;;;;;4973538;28;20034;-53
2022/03/19 07:58:07;;;;;;;64.90;58.60;;;614.40;870.40;;;;;;4973214;28;20022;-53
2022/03/19 08:00:32;;;;;;;50.53;45.33;;;640.00;819.20;;;;;;4973280;28;20073;-58
2022/03/19 08:02:58;;;;;;;64.50;55.85;;;614.90;819.20;;;;;;4972984;28;20055;-54
2022/03/19 08:05:24;;;;;;;59.60;52.67;;;640.10;793.60;;;;;;4973459;28;20047;-52
2022/03/19 08:07:51;;;;;;;61.53;54.42;;;589.20;896.00;;;;;;4973145;28;20035;-53
2022/03/19 08:10:18;;;;;;;50.35;44.88;;;589.20;844.80;;;;;;4973011;28;20038;-53
2022/03/19 08:12:45;;;;;;;38.53;34.45;;;564.10;870.40;;;;;;4973284;28;20029;-53
2022/03/19 08:15:11;;;;;;;42.25;37.92;;;589.50;819.20;;;;;;4973225;28;20034;-53
2022/03/19 08:17:38;;;;;;;177.82;159.35;;;589.50;819.20;;;;;;4972840;28;20146;-53
2022/03/19 08:20:08;;;;;;;43.95;39.22;;;615.30;793.60;;;;;;4973146;28;20105;-53
2022/03/19 08:22:34;;;;;;;47.00;40.45;;;588.90;844.80;;;;;;4973014;28;20114;-52
2022/03/19 08:25:01;;;;;;;84.63;73.00;;;640.10;793.60;;;;;;4972873;28;20027;-54
2022/03/19 08:27:27;;;;;;;81.20;67.40;;;666.20;768.00;;;;;;4972861;28;20038;-53
2022/03/19 08:29:53;;;;;;;26.92;23.98;;;615.00;793.60;;;;;;4973028;28;20023;-53
2022/03/19 08:32:20;;;;;;;33.97;30.35;;;589.00;819.20;;;;;;4972581;28;20428;-53
2022/03/19 08:34:46;;;;;;;35.25;31.38;;;589.10;844.80;;;;;;4972558;28;20466;-53
2022/03/19 08:37:12;;;;;;;68.55;60.33;;;640.90;742.40;;;;;;4973001;28;20489;-53
2022/03/19 08:42:23;;;;;;;37.92;32.58;;;640.40;768.00;;;;;;4972867;28;20728;-53
2022/03/19 08:44:49;;;;;;;46.63;39.88;;;614.80;793.60;;;;;;4972652;28;20026;-52
2022/03/19 08:47:15;;;;;;;45.72;36.20;;;614.40;819.20;;;;;;4972836;28;20023;-53
2022/03/19 08:49:41;;;;;;;42.20;29.50;;;615.10;793.60;;;;;;4972724;28;20027;-53
2022/03/19 08:52:07;;;;;;;34.45;30.77;;;640.20;768.00;;;;;;4972439;28;20082;-58
2022/03/19 08:54:33;;;;;;;15.55;13.38;;;640.70;742.40;;;;;;4971662;28;20023;-53
2022/03/19 08:56:59;;;;;;;28.88;22.83;;;589.70;742.40;;;;;;4972159;28;20030;-54
2022/03/19 08:59:25;;;;;;;25.50;21.70;;;563.90;844.80;;;;;;4972373;28;20048;-52
2022/03/19 09:01:52;;;;;;;32.75;28.10;;;589.50;793.60;;;;;;4972296;28;20104;-55
2022/03/19 09:04:19;;;;;;;32.03;24.75;;;563.80;844.80;;;;;;4972086;28;20034;-57
2022/03/19 09:06:45;;;;;;;21.75;19.38;;;538.30;844.80;;;;;;4972367;28;20062;-52
2022/03/19 09:09:14;;;;;;;28.90;24.17;;;512.40;844.80;;;;;;4972259;28;20027;-52
2022/03/19 09:11:40;;;;;;;24.38;20.38;;;487.30;896.00;;;;;;4970309;28;20026;-52
2022/03/19 09:14:07;;;;;;;41.50;30.55;;;435.80;947.20;;;;;;4970315;28;20086;-53
2022/03/19 09:16:34;;;;;;;66.88;49.60;;;410.30;998.40;;;;;;4970463;28;20031;-52
2022/03/19 09:19:00;;;;;;;27.25;20.85;;;384.80;998.40;;;;;;4970393;28;20035;-52
2022/03/19 09:21:29;;;;;;;24.05;18.90;;;384.00;1075.20;;;;;;4970358;28;20438;-53
2022/03/19 09:23:58;;;;;;;22.08;17.17;;;409.70;1049.60;;;;;;4970353;28;20070;-58
2022/03/19 09:26:24;;;;;;;18.13;12.95;;;384.50;1049.60;;;;;;4970233;28;20465;-53
2022/03/19 09:28:51;;;;;;;19.45;14.35;;;359.00;1049.60;;;;;;4970624;28;20023;-54
2022/03/19 09:31:17;;;;;;;16.13;10.82;;;333.70;1075.20;;;;;;4971863;28;20031;-56
2022/03/19 09:33:45;;;;;;;21.25;16.10;;;333.70;1049.60;;;;;;4971932;28;20512;-51
2022/03/19 09:36:11;;;;;;;28.88;19.33;;;358.40;1126.40;;;;;;4972043;28;20490;-51
2022/03/19 09:38:37;;;;;;;19.42;13.75;;;358.80;1100.80;;;;;;4971520;28;20157;-52
2022/03/19 09:41:03;;;;;;;21.77;15.95;;;333.30;1152.00;;;;;;4971848;28;20066;-52
2022/03/19 09:43:31;;;;;;;19.85;13.90;;;333.30;1152.00;;;;;;4971460;28;20101;-51
2022/03/19 09:45:57;;;;;;;20.25;13.90;;;333.50;1152.00;;;;;;4971656;28;20045;-56
2022/03/19 09:48:23;;;;;;;55.88;39.30;;;358.40;1152.00;;;;;;4971639;28;20454;-52
2022/03/19 09:50:54;;;;;;;36.65;30.30;;;358.90;1126.40;;;;;;4971387;28;20031;-51
2022/03/19 09:53:25;;;;;;;25.95;21.42;;;358.40;1152.00;;;;;;4971330;28;20027;-52
2022/03/19 09:55:56;;;;;;;20.20;14.32;;;358.80;1126.40;;;;;;4971298;28;20061;-52
2022/03/19 09:58:22;;;;;;;29.90;20.98;;;333.20;1203.20;;;;;;4971759;28;20027;-52
2022/03/19 10:00:48;;;;;;;18.25;13.50;;;333.40;1203.20;;;;;;4971222;28;20102;-52
2022/03/19 10:03:17;;;;;;;30.67;19.52;;;333.20;1228.80;;;;;;4971375;28;20450;-51
2022/03/19 10:08:39;;;;;;;18.13;12.18;;;333.00;1254.40;;;;;;4971358;28;20426;-52
2022/03/19 10:11:11;;;;;;;21.58;15.80;;;333.30;1203.20;;;;;;4971389;28;20030;-51
2022/03/19 10:13:48;;;;;;;30.05;18.58;;;332.80;1228.80;;;;;;4971433;28;20377;-51
2022/03/19 10:16:28;;;;;;;14.40;10.85;;;333.20;1228.80;;;;;;4971439;28;20106;-55
2022/03/19 10:19:03;;;;;;;36.50;18.30;;;332.80;1254.40;;;;;;4963692;28;20027;-51
2022/03/19 10:21:30;;;;;;;26.60;17.52;;;332.90;1228.80;;;;;;4971086;28;20540;-51
2022/03/19 10:23:59;;;;;;;18.38;12.85;;;333.20;1228.80;;;;;;4971342;28;20169;-52
2022/03/19 10:26:33;;;;;;;19.17;14.63;;;333.10;1203.20;;;;;;4971297;28;20098;-51
2022/03/19 10:29:06;;;;;;;;;;;333.20;1203.20;;;;;;4951083;29;20067;-52
2022/03/19 10:31:34;;;;;;;30.77;20.43;;;332.90;1203.20;;;;;;4968619;28;20345;-57
2022/03/19 10:34:01;;;;;;;30.48;19.45;;;308.10;1228.80;;;;;;4970929;28;20292;-57
2022/03/19 10:36:37;;;;;;;24.63;15.82;;;333.20;1254.40;;;;;;4970918;28;20033;-52
2022/03/19 10:39:11;;;;;;;21.75;13.43;;;333.40;1228.80;;;;;;4970981;28;20062;-51
2022/03/19 10:41:37;;;;;;;21.20;14.10;;;333.70;1203.20;;;;;;4970727;28;20105;-51
2022/03/19 10:44:14;;;;;;;21.25;14.73;;;333.70;1177.60;;;;;;4971126;28;20031;-52
2022/03/19 10:46:50;;;;;;;24.42;17.60;;;333.70;1203.20;;;;;;4970478;28;20031;-56
2022/03/19 10:49:18;;;;;;;19.77;13.90;;;333.60;1280.00;;;;;;4971070;28;20247;-52
2022/03/19 10:51:49;;;;;;;18.75;13.30;;;333.20;1228.80;;;;;;4971238;28;20101;-52
2022/03/19 10:54:16;;;;;;;17.08;11.93;;;308.10;1203.20;;;;;;4971082;28;20030;-52
2022/03/19 10:56:44;;;;;;;20.77;15.35;;;333.10;1228.80;;;;;;4971056;28;20046;-56
2022/03/19 10:59:10;;;;;;;25.42;14.50;;;333.20;1228.80;;;;;;4962066;28;20114;-51
2022/03/19 11:01:36;;;;;;;22.63;15.27;;;333.20;1228.80;;;;;;4959859;28;20054;-52
2022/03/19 11:04:04;;;;;;;27.92;19.27;;;332.90;1228.80;;;;;;4962099;28;20125;-52
2022/03/19 11:06:36;;;;;;;17.70;13.98;;;333.20;1254.40;;;;;;4960695;28;20029;-52
2022/03/19 11:09:10;;;;;;;18.83;13.90;;;307.80;1254.40;;;;;;4959698;28;20165;-52
2022/03/19 11:11:41;;;;;;;;;;;332.80;1280.00;;;;;;4968390;28;20126;-57
2022/03/19 11:14:10;;;;;;;21.67;15.23;;;308.10;1228.80;;;;;;4949811;29;20372;-52
2022/03/19 11:16:39;;;;;;;17.02;12.60;;;308.10;1228.80;;;;;;4968700;28;20101;-52
2022/03/19 11:19:05;;;;;;;26.60;16.17;;;333.10;1203.20;;;;;;4973285;28;20066;-51
2022/03/19 11:21:32;;;;;;;24.95;16.65;;;332.90;1228.80;;;;;;4974316;28;20054;-51
2022/03/19 11:24:06;;;;;;;22.80;16.35;;;333.00;1203.20;;;;;;4974009;28;20038;-52
2022/03/19 11:26:33;;;;;;;28.17;19.38;;;332.80;1228.80;;;;;;4974377;28;20023;-57
2022/03/19 11:28:59;;;;;;;31.02;17.85;;;333.10;1203.20;;;;;;4974029;28;20048;-52
2022/03/19 11:31:29;;;;;;;15.98;12.80;;;333.00;1228.80;;;;;;4974138;28;20390;-51
2022/03/19 11:34:12;;;;;;;21.33;14.07;;;307.90;1177.60;;;;;;4974067;28;20038;-51
2022/03/19 11:36:58;;;;;;;16.83;10.73;;;333.00;1203.20;;;;;;4973710;28;20045;-51
2022/03/19 11:39:24;;;;;;;26.60;14.50;;;333.20;1177.60;;;;;;4974024;28;20019;-57
2022/03/19 11:41:51;;;;;;;20.27;14.77;;;333.10;1203.20;;;;;;4973783;28;20031;-56
2022/03/19 11:44:24;;;;;;;19.60;11.98;;;333.10;1228.80;;;;;;4973784;28;20026;-54
2022/03/19 11:47:00;;;;;;;21.75;14.02;;;307.70;1228.80;;;;;;4973642;28;20043;-54
2022/03/19 11:49:45;;;;;;;22.58;14.15;;;308.00;1228.80;;;;;;4973579;28;20049;-52
2022/03/19 11:52:15;;;;;;;21.73;14.20;;;308.10;1177.60;;;;;;4973792;28;20034;-52
2022/03/19 11:55:00;;;;;;;16.45;13.35;;;332.90;1203.20;;;;;;4973773;28;20486;-51
2022/03/19 11:57:28;;;;;;;21.27;11.63;;;307.60;1177.60;;;;;;4973593;28;20023;-57
2022/03/19 11:59:59;;;;;;;14.48;11.25;;;332.90;1203.20;;;;;;4973607;28;20466;-51
2022/03/19 12:02:26;;;;;;;25.63;15.45;;;307.80;1152.00;;;;;;4973269;28;20054;-54
2022/03/19 12:04:55;;;;;;;24.70;11.07;;;307.90;1177.60;;;;;;4973577;28;20113;-52
2022/03/19 12:07:50;;;;;;;16.92;13.00;;;307.90;1152.00;;;;;;4973372;28;20423;-52
2022/03/19 12:10:24;;;;;;;18.77;12.52;;;307.70;1152.00;;;;;;4971480;28;20078;-53
2022/03/19 12:12:50;;;;;;;17.63;10.55;;;307.80;1152.00;;;;;;4973047;28;20033;-52
2022/03/19 12:15:34;;;;;;;15.77;9.55;;;307.60;1152.00;;;;;;4952879;29;20386;-52
2022/03/19 12:18:26;;;;;;;15.90;10.05;;;307.80;1126.40;;;;;;4966316;28;20030;-52
2022/03/19 12:20:54;;;;;;;19.23;12.95;;;307.60;1152.00;;;;;;4973242;28;20038;-52
2022/03/19 12:23:20;;;;;;;366.08;233.63;;;308.10;1177.60;;;;;;4972803;28;20101;-52
2022/03/19 12:26:03;;;;;;;19.27;13.18;;;332.90;1177.60;;;;;;4973112;28;20748;-57